sensor_id;sensor_type;location;lat;lon;timestamp;temperature;humidity
43143;DHT22;28750;59.842;17.584;2022-12-18T00:01:26;0.80;99.90
43143;DHT22;28750;59.842;17.584;2022-12-18T00:03:54;0.80;99.90
43143;DHT22;28750;59.842;17.584;2022-12-18T00:06:22;0.90;99.90
43143;DHT22;28750;59.842;17.584;2022-12-18T00:08:49;0.90;99.90
43143;DHT22;28750;59.842;17.584;2022-12-18T00:11:22;0.90;99.90
43143;DHT22;28750;59.842;17.584;2022-12-18T00:13:49;0.90;99.90
43143;DHT22;28750;59.842;17.584;2022-12-18T00:16:19;0.90;99.90
43143;DHT22;28750;59.842;17.584;2022-12-18T00:18:48;0.90;99.90
43143;DHT22;28750;59.842;17.584;2022-12-18T00:21:15;0.90;99.90
43143;DHT22;28750;59.842;17.584;2022-12-18T00:23:43;0.90;99.90
43143;DHT22;28750;59.842;17.584;2022-12-18T00:26:16;0.90;99.90
43143;DHT22;28750;59.842;17.584;2022-12-18T00:28:44;1.00;99.90
43143;DHT22;28750;59.842;17.584;2022-12-18T00:31:17;1.00;99.90
43143;DHT22;28750;59.842;17.584;2022-12-18T00:33:44;0.90;99.90
43143;DHT22;28750;59.842;17.584;2022-12-18T00:36:20;1.00;99.90
43143;DHT22;28750;59.842;17.584;2022-12-18T00:38:47;1.00;99.90
43143;DHT22;28750;59.842;17.584;2022-12-18T00:41:16;1.00;99.90
43143;DHT22;28750;59.842;17.584;2022-12-18T00:44:05;1.00;99.90
43143;DHT22;28750;59.842;17.584;2022-12-18T00:46:32;1.00;99.90
43143;DHT22;28750;59.842;17.584;2022-12-18T00:48:59;1.00;99.90
43143;DHT22;28750;59.842;17.584;2022-12-18T00:51:26;1.00;99.90
43143;DHT22;28750;59.842;17.584;2022-12-18T00:53:53;1.00;99.90
43143;DHT22;28750;59.842;17.584;2022-12-18T00:56:20;1.00;99.90
43143;DHT22;28750;59.842;17.584;2022-12-18T00:58:47;1.00;99.90
43143;DHT22;28750;59.842;17.584;2022-12-18T01:01:15;1.10;99.90
43143;DHT22;28750;59.842;17.584;2022-12-18T01:03:42;1.00;99.90
43143;DHT22;28750;59.842;17.584;2022-12-18T01:06:12;1.10;99.90
43143;DHT22;28750;59.842;17.584;2022-12-18T01:08:39;1.10;99.90
43143;DHT22;28750;59.842;17.584;2022-12-18T01:11:11;1.10;99.90
43143;DHT22;28750;59.842;17.584;2022-12-18T01:13:39;1.10;99.90
43143;DHT22;28750;59.842;17.584;2022-12-18T01:16:07;1.10;99.90
43143;DHT22;28750;59.842;17.584;2022-12-18T01:18:34;1.10;99.90
43143;DHT22;28750;59.842;17.584;2022-12-18T01:21:09;1.10;99.90
43143;DHT22;28750;59.842;17.584;2022-12-18T01:23:36;1.10;99.90
43143;DHT22;28750;59.842;17.584;2022-12-18T01:26:12;1.10;99.90
43143;DHT22;28750;59.842;17.584;2022-12-18T01:28:40;1.10;99.90
43143;DHT22;28750;59.842;17.584;2022-12-18T01:31:28;1.20;99.90
43143;DHT22;28750;59.842;17.584;2022-12-18T01:33:56;1.20;99.90
43143;DHT22;28750;59.842;17.584;2022-12-18T01:36:24;1.10;99.90
43143;DHT22;28750;59.842;17.584;2022-12-18T01:38:52;1.10;99.90
43143;DHT22;28750;59.842;17.584;2022-12-18T01:41:26;1.10;99.90
43143;DHT22;28750;59.842;17.584;2022-12-18T01:45:06;1.20;99.90
43143;DHT22;28750;59.842;17.584;2022-12-18T01:50:08;1.10;99.90
43143;DHT22;28750;59.842;17.584;2022-12-18T01:52:36;1.10;99.90
43143;DHT22;28750;59.842;17.584;2022-12-18T01:55:04;1.10;99.90
43143;DHT22;28750;59.842;17.584;2022-12-18T01:57:32;1.20;99.90
43143;DHT22;28750;59.842;17.584;2022-12-18T02:00:07;1.10;99.90
43143;DHT22;28750;59.842;17.584;2022-12-18T02:02:34;1.20;99.90
43143;DHT22;28750;59.842;17.584;2022-12-18T02:05:03;1.10;99.90
43143;DHT22;28750;59.842;17.584;2022-12-18T02:10:29;1.10;99.90
43143;DHT22;28750;59.842;17.584;2022-12-18T02:18:32;1.20;99.90
43143;DHT22;28750;59.842;17.584;2022-12-18T02:21:28;1.10;99.90
43143;DHT22;28750;59.842;17.584;2022-12-18T02:26:48;1.10;99.90
43143;DHT22;28750;59.842;17.584;2022-12-18T02:29:22;1.10;99.90
43143;DHT22;28750;59.842;17.584;2022-12-18T02:31:58;1.10;99.90
43143;DHT22;28750;59.842;17.584;2022-12-18T02:34:31;1.10;99.90
43143;DHT22;28750;59.842;17.584;2022-12-18T02:37:02;1.10;99.90
43143;DHT22;28750;59.842;17.584;2022-12-18T02:39:33;1.10;99.90
43143;DHT22;28750;59.842;17.584;2022-12-18T02:42:00;1.10;99.90
43143;DHT22;28750;59.842;17.584;2022-12-18T02:44:48;1.20;99.90
43143;DHT22;28750;59.842;17.584;2022-12-18T02:47:18;1.20;99.90
43143;DHT22;28750;59.842;17.584;2022-12-18T03:00:58;1.10;99.90
43143;DHT22;28750;59.842;17.584;2022-12-18T03:06:07;1.20;99.90
43143;DHT22;28750;59.842;17.584;2022-12-18T03:08:43;1.10;99.90
43143;DHT22;28750;59.842;17.584;2022-12-18T03:11:13;1.10;99.90
43143;DHT22;28750;59.842;17.584;2022-12-18T03:13:58;1.10;99.90
43143;DHT22;28750;59.842;17.584;2022-12-18T03:16:30;1.10;99.90
43143;DHT22;28750;59.842;17.584;2022-12-18T03:19:07;1.20;99.90
43143;DHT22;28750;59.842;17.584;2022-12-18T03:21:47;1.10;99.90
43143;DHT22;28750;59.842;17.584;2022-12-18T03:24:17;1.20;99.90
43143;DHT22;28750;59.842;17.584;2022-12-18T03:26:49;1.10;99.90
43143;DHT22;28750;59.842;17.584;2022-12-18T03:29:22;1.10;99.90
43143;DHT22;28750;59.842;17.584;2022-12-18T03:31:58;1.10;99.90
43143;DHT22;28750;59.842;17.584;2022-12-18T03:34:34;1.10;99.90
43143;DHT22;28750;59.842;17.584;2022-12-18T03:37:01;1.10;99.90
43143;DHT22;28750;59.842;17.584;2022-12-18T03:39:28;1.10;99.90
43143;DHT22;28750;59.842;17.584;2022-12-18T03:52:22;1.10;99.90
43143;DHT22;28750;59.842;17.584;2022-12-18T03:54:51;1.10;99.90
43143;DHT22;28750;59.842;17.584;2022-12-18T03:57:22;1.10;99.90
43143;DHT22;28750;59.842;17.584;2022-12-18T03:59:54;1.10;99.90
43143;DHT22;28750;59.842;17.584;2022-12-18T04:02:23;1.10;99.90
43143;DHT22;28750;59.842;17.584;2022-12-18T04:04:53;1.10;99.90
43143;DHT22;28750;59.842;17.584;2022-12-18T04:07:22;1.10;99.90
43143;DHT22;28750;59.842;17.584;2022-12-18T04:09:53;1.10;99.90
43143;DHT22;28750;59.842;17.584;2022-12-18T04:12:25;1.10;99.90
43143;DHT22;28750;59.842;17.584;2022-12-18T04:14:53;1.00;99.90
43143;DHT22;28750;59.842;17.584;2022-12-18T04:17:19;1.00;99.90
43143;DHT22;28750;59.842;17.584;2022-12-18T04:19:47;1.00;99.90
43143;DHT22;28750;59.842;17.584;2022-12-18T04:22:13;1.00;99.90
43143;DHT22;28750;59.842;17.584;2022-12-18T04:24:40;1.00;99.90
43143;DHT22;28750;59.842;17.584;2022-12-18T04:27:07;1.00;99.90
43143;DHT22;28750;59.842;17.584;2022-12-18T04:29:34;1.00;99.90
43143;DHT22;28750;59.842;17.584;2022-12-18T04:32:01;1.00;99.90
43143;DHT22;28750;59.842;17.584;2022-12-18T04:34:28;1.00;99.90
43143;DHT22;28750;59.842;17.584;2022-12-18T04:36:56;0.90;99.90
43143;DHT22;28750;59.842;17.584;2022-12-18T04:39:23;0.90;99.90
43143;DHT22;28750;59.842;17.584;2022-12-18T04:41:50;0.90;99.90
43143;DHT22;28750;59.842;17.584;2022-12-18T04:44:17;0.90;99.90
43143;DHT22;28750;59.842;17.584;2022-12-18T04:46:44;0.90;99.90
43143;DHT22;28750;59.842;17.584;2022-12-18T04:49:11;0.90;99.90
43143;DHT22;28750;59.842;17.584;2022-12-18T04:51:38;0.80;99.90
43143;DHT22;28750;59.842;17.584;2022-12-18T04:54:05;0.90;99.90
43143;DHT22;28750;59.842;17.584;2022-12-18T04:56:32;0.90;99.90
43143;DHT22;28750;59.842;17.584;2022-12-18T04:58:59;0.80;99.90
43143;DHT22;28750;59.842;17.584;2022-12-18T05:01:26;0.80;99.90
43143;DHT22;28750;59.842;17.584;2022-12-18T05:03:53;0.80;99.90
43143;DHT22;28750;59.842;17.584;2022-12-18T05:06:20;0.80;99.90
43143;DHT22;28750;59.842;17.584;2022-12-18T05:08:47;0.80;99.90
43143;DHT22;28750;59.842;17.584;2022-12-18T05:11:15;0.80;99.90
43143;DHT22;28750;59.842;17.584;2022-12-18T05:13:43;0.70;99.90
43143;DHT22;28750;59.842;17.584;2022-12-18T05:16:11;0.70;99.90
43143;DHT22;28750;59.842;17.584;2022-12-18T05:18:39;0.80;99.90
43143;DHT22;28750;59.842;17.584;2022-12-18T05:21:06;0.80;99.90
43143;DHT22;28750;59.842;17.584;2022-12-18T05:23:33;0.80;99.90
43143;DHT22;28750;59.842;17.584;2022-12-18T05:26:03;0.80;99.90
43143;DHT22;28750;59.842;17.584;2022-12-18T05:28:32;0.80;99.90
43143;DHT22;28750;59.842;17.584;2022-12-18T05:31:01;0.80;99.90
43143;DHT22;28750;59.842;17.584;2022-12-18T05:33:31;0.80;99.90
43143;DHT22;28750;59.842;17.584;2022-12-18T05:36:00;0.80;99.90
43143;DHT22;28750;59.842;17.584;2022-12-18T05:38:29;0.80;99.90
43143;DHT22;28750;59.842;17.584;2022-12-18T05:40:58;0.80;99.90
43143;DHT22;28750;59.842;17.584;2022-12-18T05:43:26;0.70;99.90
43143;DHT22;28750;59.842;17.584;2022-12-18T05:45:54;0.70;99.90
43143;DHT22;28750;59.842;17.584;2022-12-18T05:48:22;0.80;99.90
43143;DHT22;28750;59.842;17.584;2022-12-18T05:50:50;0.80;99.90
43143;DHT22;28750;59.842;17.584;2022-12-18T05:53:19;0.70;99.90
43143;DHT22;28750;59.842;17.584;2022-12-18T05:55:47;0.70;99.90
43143;DHT22;28750;59.842;17.584;2022-12-18T05:58:14;0.80;99.90
43143;DHT22;28750;59.842;17.584;2022-12-18T06:00:43;0.80;99.90
43143;DHT22;28750;59.842;17.584;2022-12-18T06:03:12;0.70;99.90
43143;DHT22;28750;59.842;17.584;2022-12-18T06:05:42;0.70;99.90
43143;DHT22;28750;59.842;17.584;2022-12-18T06:08:11;0.70;99.90
43143;DHT22;28750;59.842;17.584;2022-12-18T06:10:39;0.70;99.90
43143;DHT22;28750;59.842;17.584;2022-12-18T06:13:06;0.80;99.90
43143;DHT22;28750;59.842;17.584;2022-12-18T06:15:36;0.70;99.90
43143;DHT22;28750;59.842;17.584;2022-12-18T06:18:04;0.70;99.90
43143;DHT22;28750;59.842;17.584;2022-12-18T06:20:31;0.80;99.90
43143;DHT22;28750;59.842;17.584;2022-12-18T06:22:58;0.80;99.90
43143;DHT22;28750;59.842;17.584;2022-12-18T06:25:25;0.80;99.90
43143;DHT22;28750;59.842;17.584;2022-12-18T06:27:52;0.70;99.90
43143;DHT22;28750;59.842;17.584;2022-12-18T06:30:19;0.80;99.90
43143;DHT22;28750;59.842;17.584;2022-12-18T06:32:48;0.70;99.90
43143;DHT22;28750;59.842;17.584;2022-12-18T06:35:15;0.70;99.90
43143;DHT22;28750;59.842;17.584;2022-12-18T06:37:42;0.70;99.90
43143;DHT22;28750;59.842;17.584;2022-12-18T06:40:09;0.80;99.90
43143;DHT22;28750;59.842;17.584;2022-12-18T06:42:36;0.80;99.90
43143;DHT22;28750;59.842;17.584;2022-12-18T06:45:03;0.80;99.90
43143;DHT22;28750;59.842;17.584;2022-12-18T06:47:30;0.80;99.90
43143;DHT22;28750;59.842;17.584;2022-12-18T06:49:57;0.80;99.90
43143;DHT22;28750;59.842;17.584;2022-12-18T06:52:24;0.70;99.90
43143;DHT22;28750;59.842;17.584;2022-12-18T06:54:51;0.80;99.90
43143;DHT22;28750;59.842;17.584;2022-12-18T06:57:18;0.80;99.90
43143;DHT22;28750;59.842;17.584;2022-12-18T06:59:45;0.80;99.90
43143;DHT22;28750;59.842;17.584;2022-12-18T07:02:12;0.80;99.90
43143;DHT22;28750;59.842;17.584;2022-12-18T07:04:39;0.80;99.90
43143;DHT22;28750;59.842;17.584;2022-12-18T07:07:06;0.80;99.90
43143;DHT22;28750;59.842;17.584;2022-12-18T07:09:33;0.80;99.90
43143;DHT22;28750;59.842;17.584;2022-12-18T07:12:00;0.70;99.90
43143;DHT22;28750;59.842;17.584;2022-12-18T07:14:27;0.70;99.90
43143;DHT22;28750;59.842;17.584;2022-12-18T07:16:54;0.70;99.90
43143;DHT22;28750;59.842;17.584;2022-12-18T07:19:21;0.70;99.90
43143;DHT22;28750;59.842;17.584;2022-12-18T07:21:49;0.70;99.90
43143;DHT22;28750;59.842;17.584;2022-12-18T07:24:17;0.80;99.90
43143;DHT22;28750;59.842;17.584;2022-12-18T07:26:46;0.80;99.90
43143;DHT22;28750;59.842;17.584;2022-12-18T07:29:13;0.80;99.90
43143;DHT22;28750;59.842;17.584;2022-12-18T07:31:40;0.80;99.90
43143;DHT22;28750;59.842;17.584;2022-12-18T07:34:13;0.80;99.90
43143;DHT22;28750;59.842;17.584;2022-12-18T07:36:41;0.80;99.90
43143;DHT22;28750;59.842;17.584;2022-12-18T07:39:10;0.80;99.90
43143;DHT22;28750;59.842;17.584;2022-12-18T07:41:37;0.80;99.90
43143;DHT22;28750;59.842;17.584;2022-12-18T07:44:10;0.80;99.90
43143;DHT22;28750;59.842;17.584;2022-12-18T07:46:37;0.80;99.90
43143;DHT22;28750;59.842;17.584;2022-12-18T07:49:04;0.80;99.90
43143;DHT22;28750;59.842;17.584;2022-12-18T07:51:31;0.90;99.90
43143;DHT22;28750;59.842;17.584;2022-12-18T07:53:58;0.90;99.90
43143;DHT22;28750;59.842;17.584;2022-12-18T07:56:25;0.90;99.90
43143;DHT22;28750;59.842;17.584;2022-12-18T07:58:52;0.90;99.90
43143;DHT22;28750;59.842;17.584;2022-12-18T08:01:19;0.90;99.90
43143;DHT22;28750;59.842;17.584;2022-12-18T08:03:45;0.90;99.90
43143;DHT22;28750;59.842;17.584;2022-12-18T08:06:12;0.90;99.90
43143;DHT22;28750;59.842;17.584;2022-12-18T08:08:39;0.90;99.90
43143;DHT22;28750;59.842;17.584;2022-12-18T08:11:07;1.00;99.90
43143;DHT22;28750;59.842;17.584;2022-12-18T08:13:34;1.00;99.90
43143;DHT22;28750;59.842;17.584;2022-12-18T08:16:06;1.00;99.90
43143;DHT22;28750;59.842;17.584;2022-12-18T08:18:35;0.90;99.90
43143;DHT22;28750;59.842;17.584;2022-12-18T08:21:24;1.00;99.90
43143;DHT22;28750;59.842;17.584;2022-12-18T08:23:54;1.00;99.90
43143;DHT22;28750;59.842;17.584;2022-12-18T08:26:22;1.00;99.90
43143;DHT22;28750;59.842;17.584;2022-12-18T08:28:52;1.00;99.90
43143;DHT22;28750;59.842;17.584;2022-12-18T08:31:20;1.00;99.90
43143;DHT22;28750;59.842;17.584;2022-12-18T08:33:51;0.90;99.90
43143;DHT22;28750;59.842;17.584;2022-12-18T08:36:19;1.00;99.90
43143;DHT22;28750;59.842;17.584;2022-12-18T08:38:47;1.00;99.90
43143;DHT22;28750;59.842;17.584;2022-12-18T08:41:15;1.10;99.90
43143;DHT22;28750;59.842;17.584;2022-12-18T08:43:43;1.00;99.90
43143;DHT22;28750;59.842;17.584;2022-12-18T08:46:31;1.00;99.90
43143;DHT22;28750;59.842;17.584;2022-12-18T08:48:58;1.00;99.90
43143;DHT22;28750;59.842;17.584;2022-12-18T08:51:25;1.00;99.90
43143;DHT22;28750;59.842;17.584;2022-12-18T08:53:52;1.00;99.90
43143;DHT22;28750;59.842;17.584;2022-12-18T08:56:19;1.00;99.90
43143;DHT22;28750;59.842;17.584;2022-12-18T08:58:46;1.00;99.90
43143;DHT22;28750;59.842;17.584;2022-12-18T09:01:13;1.00;99.90
43143;DHT22;28750;59.842;17.584;2022-12-18T09:03:40;1.10;99.90
43143;DHT22;28750;59.842;17.584;2022-12-18T09:06:08;1.10;99.90
43143;DHT22;28750;59.842;17.584;2022-12-18T09:08:35;1.20;99.90
43143;DHT22;28750;59.842;17.584;2022-12-18T09:11:03;1.10;99.90
43143;DHT22;28750;59.842;17.584;2022-12-18T09:13:30;1.20;99.90
43143;DHT22;28750;59.842;17.584;2022-12-18T09:15:57;1.20;99.90
43143;DHT22;28750;59.842;17.584;2022-12-18T09:18:24;1.20;99.90
43143;DHT22;28750;59.842;17.584;2022-12-18T09:20:51;1.30;99.90
43143;DHT22;28750;59.842;17.584;2022-12-18T09:23:19;1.30;99.90
43143;DHT22;28750;59.842;17.584;2022-12-18T09:25:46;1.30;99.90
43143;DHT22;28750;59.842;17.584;2022-12-18T09:28:14;1.20;99.90
43143;DHT22;28750;59.842;17.584;2022-12-18T09:30:44;1.30;99.90
43143;DHT22;28750;59.842;17.584;2022-12-18T09:33:12;1.30;99.90
43143;DHT22;28750;59.842;17.584;2022-12-18T09:35:39;1.30;99.90
43143;DHT22;28750;59.842;17.584;2022-12-18T09:38:07;1.40;99.90
43143;DHT22;28750;59.842;17.584;2022-12-18T09:40:51;1.40;99.90
43143;DHT22;28750;59.842;17.584;2022-12-18T09:43:43;1.40;99.90
43143;DHT22;28750;59.842;17.584;2022-12-18T09:46:18;1.40;99.90
43143;DHT22;28750;59.842;17.584;2022-12-18T09:48:49;1.40;99.90
43143;DHT22;28750;59.842;17.584;2022-12-18T09:51:26;1.50;99.90
43143;DHT22;28750;59.842;17.584;2022-12-18T09:53:59;1.50;99.90
43143;DHT22;28750;59.842;17.584;2022-12-18T09:56:29;1.50;99.90
43143;DHT22;28750;59.842;17.584;2022-12-18T09:59:03;1.50;99.90
43143;DHT22;28750;59.842;17.584;2022-12-18T10:01:32;1.60;99.90
43143;DHT22;28750;59.842;17.584;2022-12-18T10:03:59;1.60;99.90
43143;DHT22;28750;59.842;17.584;2022-12-18T10:06:54;1.50;99.90
43143;DHT22;28750;59.842;17.584;2022-12-18T10:09:39;1.60;99.90
43143;DHT22;28750;59.842;17.584;2022-12-18T10:12:20;1.60;99.90
43143;DHT22;28750;59.842;17.584;2022-12-18T10:15:04;1.60;99.90
43143;DHT22;28750;59.842;17.584;2022-12-18T10:17:40;1.60;99.90
43143;DHT22;28750;59.842;17.584;2022-12-18T10:22:57;1.60;99.90
43143;DHT22;28750;59.842;17.584;2022-12-18T10:25:53;1.60;99.90
43143;DHT22;28750;59.842;17.584;2022-12-18T10:28:23;1.60;99.90
43143;DHT22;28750;59.842;17.584;2022-12-18T10:30:51;1.70;99.90
43143;DHT22;28750;59.842;17.584;2022-12-18T10:33:20;1.60;99.90
43143;DHT22;28750;59.842;17.584;2022-12-18T10:35:50;1.60;99.90
43143;DHT22;28750;59.842;17.584;2022-12-18T10:40:59;1.80;99.90
43143;DHT22;28750;59.842;17.584;2022-12-18T10:46:15;1.80;99.90
43143;DHT22;28750;59.842;17.584;2022-12-18T10:48:56;1.80;99.90
43143;DHT22;28750;59.842;17.584;2022-12-18T10:51:32;1.90;99.90
43143;DHT22;28750;59.842;17.584;2022-12-18T10:54:05;1.90;99.90
43143;DHT22;28750;59.842;17.584;2022-12-18T10:56:36;1.90;99.90
43143;DHT22;28750;59.842;17.584;2022-12-18T10:59:08;1.90;99.90
43143;DHT22;28750;59.842;17.584;2022-12-18T11:01:51;2.00;99.90
43143;DHT22;28750;59.842;17.584;2022-12-18T11:04:27;2.00;99.90
43143;DHT22;28750;59.842;17.584;2022-12-18T11:07:05;2.00;99.90
43143;DHT22;28750;59.842;17.584;2022-12-18T11:09:37;2.00;99.90
43143;DHT22;28750;59.842;17.584;2022-12-18T11:12:15;2.10;99.90
43143;DHT22;28750;59.842;17.584;2022-12-18T11:14:52;2.10;99.90
43143;DHT22;28750;59.842;17.584;2022-12-18T11:17:22;2.10;99.90
43143;DHT22;28750;59.842;17.584;2022-12-18T11:19:58;2.20;99.90
43143;DHT22;28750;59.842;17.584;2022-12-18T11:22:34;2.20;99.90
43143;DHT22;28750;59.842;17.584;2022-12-18T11:27:41;2.30;99.90
43143;DHT22;28750;59.842;17.584;2022-12-18T11:33:10;2.30;99.90
43143;DHT22;28750;59.842;17.584;2022-12-18T11:35:57;2.30;99.90
43143;DHT22;28750;59.842;17.584;2022-12-18T11:38:28;2.40;99.90
43143;DHT22;28750;59.842;17.584;2022-12-18T11:43:38;2.40;99.90
43143;DHT22;28750;59.842;17.584;2022-12-18T11:46:12;2.50;99.90
43143;DHT22;28750;59.842;17.584;2022-12-18T11:51:47;2.50;99.90
43143;DHT22;28750;59.842;17.584;2022-12-18T11:54:15;2.50;99.90
43143;DHT22;28750;59.842;17.584;2022-12-18T11:57:26;2.50;99.90
43143;DHT22;28750;59.842;17.584;2022-12-18T12:05:25;2.60;99.90
43143;DHT22;28750;59.842;17.584;2022-12-18T12:11:02;2.50;99.90
43143;DHT22;28750;59.842;17.584;2022-12-18T12:16:57;2.60;99.90
43143;DHT22;28750;59.842;17.584;2022-12-18T12:22:07;2.60;99.90
43143;DHT22;28750;59.842;17.584;2022-12-18T12:30:48;2.60;99.90
43143;DHT22;28750;59.842;17.584;2022-12-18T12:33:42;2.60;99.90
43143;DHT22;28750;59.842;17.584;2022-12-18T12:39:11;2.60;99.90
43143;DHT22;28750;59.842;17.584;2022-12-18T12:41:41;2.60;99.90
43143;DHT22;28750;59.842;17.584;2022-12-18T12:44:30;2.60;99.90
43143;DHT22;28750;59.842;17.584;2022-12-18T12:47:12;2.70;99.90
43143;DHT22;28750;59.842;17.584;2022-12-18T12:49:40;2.70;99.90
43143;DHT22;28750;59.842;17.584;2022-12-18T12:52:16;2.60;99.90
43143;DHT22;28750;59.842;17.584;2022-12-18T12:54:45;2.70;99.90
43143;DHT22;28750;59.842;17.584;2022-12-18T12:57:31;2.80;99.90
43143;DHT22;28750;59.842;17.584;2022-12-18T13:08:30;2.80;99.90
43143;DHT22;28750;59.842;17.584;2022-12-18T13:10:59;2.70;99.90
43143;DHT22;28750;59.842;17.584;2022-12-18T13:13:51;2.90;99.90
43143;DHT22;28750;59.842;17.584;2022-12-18T13:16:21;2.80;99.90
43143;DHT22;28750;59.842;17.584;2022-12-18T13:18:53;2.80;99.90
43143;DHT22;28750;59.842;17.584;2022-12-18T13:21:28;2.80;99.90
43143;DHT22;28750;59.842;17.584;2022-12-18T13:23:56;2.80;99.90
43143;DHT22;28750;59.842;17.584;2022-12-18T13:26:33;2.90;99.90
43143;DHT22;28750;59.842;17.584;2022-12-18T13:29:00;2.90;99.90
43143;DHT22;28750;59.842;17.584;2022-12-18T13:34:18;2.90;99.90
43143;DHT22;28750;59.842;17.584;2022-12-18T13:36:46;2.90;99.90
43143;DHT22;28750;59.842;17.584;2022-12-18T13:41:41;3.00;99.90
43143;DHT22;28750;59.842;17.584;2022-12-18T13:46:48;3.00;99.90
43143;DHT22;28750;59.842;17.584;2022-12-18T13:49:36;2.80;99.90
43143;DHT22;28750;59.842;17.584;2022-12-18T13:52:21;2.90;99.90
43143;DHT22;28750;59.842;17.584;2022-12-18T13:54:52;3.00;99.90
43143;DHT22;28750;59.842;17.584;2022-12-18T13:57:31;2.90;99.90
43143;DHT22;28750;59.842;17.584;2022-12-18T14:02:46;3.00;99.90
43143;DHT22;28750;59.842;17.584;2022-12-18T14:08:10;3.10;99.90
43143;DHT22;28750;59.842;17.584;2022-12-18T14:10:46;3.10;99.90
43143;DHT22;28750;59.842;17.584;2022-12-18T14:13:32;3.10;99.90
43143;DHT22;28750;59.842;17.584;2022-12-18T14:16:02;3.10;99.90
43143;DHT22;28750;59.842;17.584;2022-12-18T14:18:44;3.20;99.90
43143;DHT22;28750;59.842;17.584;2022-12-18T14:21:22;3.10;99.90
43143;DHT22;28750;59.842;17.584;2022-12-18T14:24:03;3.10;99.90
43143;DHT22;28750;59.842;17.584;2022-12-18T14:26:31;3.10;99.90
43143;DHT22;28750;59.842;17.584;2022-12-18T14:29:01;3.10;99.90
43143;DHT22;28750;59.842;17.584;2022-12-18T14:31:41;3.10;99.90
43143;DHT22;28750;59.842;17.584;2022-12-18T14:34:16;3.10;99.90
43143;DHT22;28750;59.842;17.584;2022-12-18T14:36:52;3.10;99.90
43143;DHT22;28750;59.842;17.584;2022-12-18T14:39:21;3.20;99.90
43143;DHT22;28750;59.842;17.584;2022-12-18T14:41:49;3.20;99.90
43143;DHT22;28750;59.842;17.584;2022-12-18T14:44:16;3.00;99.90
43143;DHT22;28750;59.842;17.584;2022-12-18T14:46:47;3.10;99.90
43143;DHT22;28750;59.842;17.584;2022-12-18T14:49:31;3.10;99.90
43143;DHT22;28750;59.842;17.584;2022-12-18T14:52:15;3.00;99.90
43143;DHT22;28750;59.842;17.584;2022-12-18T14:54:47;3.10;99.90
43143;DHT22;28750;59.842;17.584;2022-12-18T14:57:35;3.00;99.90
43143;DHT22;28750;59.842;17.584;2022-12-18T15:00:15;3.00;99.90
43143;DHT22;28750;59.842;17.584;2022-12-18T15:02:43;3.00;99.90
43143;DHT22;28750;59.842;17.584;2022-12-18T15:07:49;3.00;99.90
43143;DHT22;28750;59.842;17.584;2022-12-18T15:10:20;3.00;99.90
43143;DHT22;28750;59.842;17.584;2022-12-18T15:20:48;2.90;99.90
43143;DHT22;28750;59.842;17.584;2022-12-18T15:26:08;3.00;99.90
43143;DHT22;28750;59.842;17.584;2022-12-18T15:28:55;3.00;99.90
43143;DHT22;28750;59.842;17.584;2022-12-18T15:31:32;2.90;99.90
43143;DHT22;28750;59.842;17.584;2022-12-18T15:34:17;2.90;99.90
43143;DHT22;28750;59.842;17.584;2022-12-18T15:36:46;2.90;99.90
43143;DHT22;28750;59.842;17.584;2022-12-18T15:39:13;2.80;99.90
43143;DHT22;28750;59.842;17.584;2022-12-18T15:41:40;2.80;99.90
43143;DHT22;28750;59.842;17.584;2022-12-18T15:44:27;2.90;99.90
43143;DHT22;28750;59.842;17.584;2022-12-18T15:46:53;2.90;99.90
43143;DHT22;28750;59.842;17.584;2022-12-18T15:49:20;2.90;99.90
43143;DHT22;28750;59.842;17.584;2022-12-18T15:51:53;2.90;99.90
43143;DHT22;28750;59.842;17.584;2022-12-18T15:54:21;2.90;99.90
43143;DHT22;28750;59.842;17.584;2022-12-18T15:57:12;3.00;99.90
43143;DHT22;28750;59.842;17.584;2022-12-18T15:59:55;2.90;99.90
43143;DHT22;28750;59.842;17.584;2022-12-18T16:02:24;2.90;99.90
43143;DHT22;28750;59.842;17.584;2022-12-18T16:04:52;2.90;99.90
43143;DHT22;28750;59.842;17.584;2022-12-18T16:07:19;3.00;99.90
43143;DHT22;28750;59.842;17.584;2022-12-18T16:09:47;2.90;99.90
43143;DHT22;28750;59.842;17.584;2022-12-18T16:12:22;3.00;99.90
43143;DHT22;28750;59.842;17.584;2022-12-18T16:14:50;2.90;99.90
43143;DHT22;28750;59.842;17.584;2022-12-18T16:17:18;2.90;99.90
43143;DHT22;28750;59.842;17.584;2022-12-18T16:19:45;2.90;99.90
43143;DHT22;28750;59.842;17.584;2022-12-18T16:22:29;2.80;99.90
43143;DHT22;28750;59.842;17.584;2022-12-18T16:24:57;2.80;99.90
43143;DHT22;28750;59.842;17.584;2022-12-18T16:27:25;2.70;99.90
43143;DHT22;28750;59.842;17.584;2022-12-18T16:29:52;2.70;99.90
43143;DHT22;28750;59.842;17.584;2022-12-18T16:32:20;2.70;99.90
43143;DHT22;28750;59.842;17.584;2022-12-18T16:34:47;2.70;99.90
43143;DHT22;28750;59.842;17.584;2022-12-18T16:37:15;2.70;99.90
43143;DHT22;28750;59.842;17.584;2022-12-18T16:39:42;2.50;99.90
43143;DHT22;28750;59.842;17.584;2022-12-18T16:42:17;2.50;99.90
43143;DHT22;28750;59.842;17.584;2022-12-18T16:44:46;2.50;99.90
43143;DHT22;28750;59.842;17.584;2022-12-18T16:47:16;2.50;99.90
43143;DHT22;28750;59.842;17.584;2022-12-18T16:49:43;2.50;99.90
43143;DHT22;28750;59.842;17.584;2022-12-18T16:52:11;2.40;99.90
43143;DHT22;28750;59.842;17.584;2022-12-18T16:54:38;2.40;99.90
43143;DHT22;28750;59.842;17.584;2022-12-18T16:57:05;2.30;99.90
43143;DHT22;28750;59.842;17.584;2022-12-18T16:59:32;2.30;99.90
43143;DHT22;28750;59.842;17.584;2022-12-18T17:01:59;2.30;99.90
43143;DHT22;28750;59.842;17.584;2022-12-18T17:04:26;2.30;99.90
43143;DHT22;28750;59.842;17.584;2022-12-18T17:06:53;2.20;99.90
43143;DHT22;28750;59.842;17.584;2022-12-18T17:09:20;2.20;99.90
43143;DHT22;28750;59.842;17.584;2022-12-18T17:11:50;2.10;99.90
43143;DHT22;28750;59.842;17.584;2022-12-18T17:14:20;2.00;99.90
43143;DHT22;28750;59.842;17.584;2022-12-18T17:16:47;2.00;99.90
43143;DHT22;28750;59.842;17.584;2022-12-18T17:19:14;1.80;99.90
43143;DHT22;28750;59.842;17.584;2022-12-18T17:21:43;1.70;99.90
43143;DHT22;28750;59.842;17.584;2022-12-18T17:24:10;1.80;99.90
43143;DHT22;28750;59.842;17.584;2022-12-18T17:26:37;1.70;99.90
43143;DHT22;28750;59.842;17.584;2022-12-18T17:29:04;1.80;99.90
43143;DHT22;28750;59.842;17.584;2022-12-18T17:31:32;1.80;99.90
43143;DHT22;28750;59.842;17.584;2022-12-18T17:34:01;1.80;99.90
43143;DHT22;28750;59.842;17.584;2022-12-18T17:36:29;1.70;99.90
43143;DHT22;28750;59.842;17.584;2022-12-18T17:38:59;1.70;99.90
43143;DHT22;28750;59.842;17.584;2022-12-18T17:41:28;1.60;99.90
43143;DHT22;28750;59.842;17.584;2022-12-18T17:43:57;1.60;99.90
43143;DHT22;28750;59.842;17.584;2022-12-18T17:46:25;1.70;99.90
43143;DHT22;28750;59.842;17.584;2022-12-18T17:48:57;1.60;99.90
43143;DHT22;28750;59.842;17.584;2022-12-18T17:51:25;1.60;99.90